Sausalito, CA (94965)

5:03 PM PST on February 26, 2017 (GMT -0800)
North Sausalito (Spring St) | | Change Station

Elev 158 ft 37.86 °N, 122.50 °W | Updated 4 seconds ago

Mostly Cloudy
Mostly Cloudy
50.9 °F
Feels Like 50.9 °F
N
0.4
Wind Variable Wind from East
Gusts 2.5 mph

Today
High -- | Low -- °F
--% Chance of Precip.
Yesterday
High -- | Low -- °F
Precip. -- in
Pressure 29.94 in
Visibility 10.0 miles
Clouds Scattered Clouds 2700 ft
Mostly Cloudy 3100 ft
Mostly Cloudy 18000 ft
Dew Point 43 °F
Humidity 75%
Rainfall 0.00 in
Snow Depth Not available.
6:45 AM 6:00 PM
New Moon, 0% visible
METAR KSFO 270056Z 28012KT 10SM SCT027 BKN031 BKN180 12/06 A2993 RMK AO2 SLP136 T01170061
Pressure 29.94 in
Visibility 10.0 miles
Clouds Scattered Clouds 2700 ft
Mostly Cloudy 3100 ft
Mostly Cloudy 18000 ft
Dew Point 43 °F
Humidity 75%
Rainfall 0.00 in
Snow Depth Not available.
6:45 AM 6:00 PM
New Moon, 0% visible
METAR KSFO 270056Z 28012KT 10SM SCT027 BKN031 BKN180 12/06 A2993 RMK AO2 SLP136 T01170061

Get Your Daily Forecast Email!

Thanks for signing up!

Be on the lookout for a verification email in your inbox.

You'll start receiving the daily forecast at 8 AM.

×

10-Day Weather Forecast

Almanac

Astronomy

Feb. 26, 2017 Rise Set
Actual Time
Civil Twilight
Nautical Twilight
Astronomical Twilight
Moon
Length of Visible Light
Length of Day
Tomorrow will be .
, % of the Moon is Illuminated

Today's Extremes

State Highs State Lows

Community

WunderPhotos

Upload Photos

1,962,540 photos uploaded!

WunderBlog® & News

Nearby

Air Quality

  Air Quality AQ Index Pollutant
Not available.

Snow Depth

Station Depth Elevation

Earthquake Activity

City Distance Mag. Time & Date
Minimum magnitude displayed is 2.5.

Coastal Water Temperatures

Place Temperature

Stations

Nearby Weather Stations

Station Location Temp. Windchill Dew Point Humidity Wind Precip. Elev Updated Type
                   

Watches & Warnings

There are currently no watches in effect.